Time;durP1;ratioP1;P1;durP2;ratioP2;P2;SDS_P1;SDS_P2;PMS_P1;PMS_P2;Temp;Humidity;BMP_temperature;BMP_pressure;BME280_temperature;BME280_humidity;BME280_pressure;Samples;Min_cycle;Max_cycle;Signal;HPM_P1;HPM_P2
2023/09/13 00:02:23;;;;;;;5.40;5.10;;;;;;;;;;5036308;28;20489;-70
2023/09/13 00:04:49;;;;;;;6.17;4.77;;;;;;;;;;5036303;28;20899;-71
2023/09/13 00:07:15;;;;;;;6.27;5.70;;;;;;;;;;5036276;28;20419;-69
2023/09/13 00:09:41;;;;;;;6.00;5.67;;;;;;;;;;5036020;28;20477;-70
2023/09/13 00:12:10;;;;;;;4.40;4.20;;;;;;;;;;5035835;28;20782;-69
2023/09/13 00:14:36;;;;;;;6.00;4.60;;;;;;;;;;5035877;28;20919;-71
2023/09/13 00:17:02;;;;;;;4.67;4.37;;;;;;;;;;5036009;28;20470;-70
2023/09/13 00:19:28;;;;;;;23.43;4.77;;;;;;;;;;5036172;28;20426;-71
2023/09/13 00:21:56;;;;;;;5.70;4.53;;;;;;;;;;5035948;28;20419;-71
2023/09/13 00:24:22;;;;;;;15.27;5.50;;;;;;;;;;5035730;28;20447;-71
2023/09/13 00:26:48;;;;;;;5.50;5.00;;;;;;;;;;5035668;28;20422;-72
2023/09/13 00:29:15;;;;;;;5.27;4.03;;;;;;;;;;5035586;28;20408;-71
2023/09/13 00:31:41;;;;;;;5.77;4.60;;;;;;;;;;5035786;28;20506;-70
2023/09/13 00:34:08;;;;;;;6.10;5.60;;;;;;;;;;5035748;28;20419;-71
2023/09/13 00:36:33;;;;;;;4.40;4.20;;;;;;;;;;5035348;28;20978;-70
2023/09/13 00:38:59;;;;;;;10.67;4.00;;;;;;;;;;5035908;28;20418;-70
2023/09/13 00:41:25;;;;;;;4.57;3.93;;;;;;;;;;5035636;28;20420;-69
2023/09/13 00:43:52;;;;;;;7.60;4.73;;;;;;;;;;5036000;28;20420;-70
2023/09/13 00:46:18;;;;;;;4.53;4.10;;;;;;;;;;5035950;28;20427;-72
2023/09/13 00:48:44;;;;;;;4.53;3.57;;;;;;;;;;5036038;28;20518;-70
2023/09/13 00:51:11;;;;;;;4.20;3.90;;;;;;;;;;5035760;28;20423;-70
2023/09/13 00:53:37;;;;;;;3.40;3.20;;;;;;;;;;5035688;28;20451;-70
2023/09/13 00:56:03;;;;;;;4.03;3.53;;;;;;;;;;5035263;28;20483;-70
2023/09/13 00:58:30;;;;;;;5.07;3.33;;;;;;;;;;5035700;28;20415;-69
2023/09/13 01:00:56;;;;;;;3.10;3.00;;;;;;;;;;5034783;28;20427;-71
2023/09/13 01:03:22;;;;;;;7.00;3.90;;;;;;;;;;5035493;28;20415;-71
2023/09/13 01:05:52;;;;;;;4.13;3.93;;;;;;;;;;5034418;28;20427;-70
2023/09/13 01:08:18;;;;;;;3.70;3.40;;;;;;;;;;5035415;28;20423;-71
2023/09/13 01:10:44;;;;;;;10.30;3.70;;;;;;;;;;5035106;28;20420;-71
2023/09/13 01:13:10;;;;;;;7.00;3.30;;;;;;;;;;5035215;28;20938;-71
2023/09/13 01:15:39;;;;;;;15.17;3.50;;;;;;;;;;5035302;28;20896;-71
2023/09/13 01:18:24;;;;;;;3.50;3.30;;;;;;;;;;5035313;28;20529;-70
2023/09/13 01:20:50;;;;;;;3.33;2.70;;;;;;;;;;5035172;28;20411;-69
2023/09/13 01:23:15;;;;;;;3.27;3.07;;;;;;;;;;5035534;28;20757;-70
2023/09/13 01:25:45;;;;;;;3.97;3.63;;;;;;;;;;5034809;28;20659;-70
2023/09/13 01:28:29;;;;;;;7.80;2.90;;;;;;;;;;5035510;28;20419;-71
2023/09/13 01:30:55;;;;;;;3.00;2.90;;;;;;;;;;5034773;28;20408;-69
2023/09/13 01:33:22;;;;;;;3.00;2.80;;;;;;;;;;5035193;28;20430;-71
2023/09/13 01:35:48;;;;;;;3.33;2.97;;;;;;;;;;5034574;28;20990;-69
2023/09/13 01:38:14;;;;;;;3.57;3.27;;;;;;;;;;5034634;28;20415;-70
2023/09/13 01:40:41;;;;;;;2.90;2.80;;;;;;;;;;5034542;28;20230;-71
2023/09/13 01:43:07;;;;;;;2.60;2.33;;;;;;;;;;5034839;28;20473;-69
2023/09/13 01:45:34;;;;;;;3.53;2.67;;;;;;;;;;5034828;28;20428;-70
2023/09/13 01:48:01;;;;;;;2.13;2.13;;;;;;;;;;5034425;28;20793;-70
2023/09/13 01:50:27;;;;;;;2.97;2.87;;;;;;;;;;5034602;28;20423;-71
2023/09/13 01:52:53;;;;;;;6.33;2.07;;;;;;;;;;5034682;28;20439;-72
2023/09/13 01:55:19;;;;;;;2.43;2.33;;;;;;;;;;5034104;28;20459;-69
2023/09/13 01:57:45;;;;;;;1.97;1.97;;;;;;;;;;5034275;28;20423;-69
2023/09/13 02:00:12;;;;;;;11.10;1.80;;;;;;;;;;5035045;28;20778;-70
2023/09/13 02:02:38;;;;;;;1.47;1.47;;;;;;;;;;5034170;28;20934;-70
2023/09/13 02:05:04;;;;;;;1.93;1.83;;;;;;;;;;5034332;28;20412;-70
2023/09/13 02:07:32;;;;;;;3.07;1.70;;;;;;;;;;5034129;28;20429;-69
2023/09/13 02:09:58;;;;;;;7.27;1.77;;;;;;;;;;5034558;28;20407;-69
2023/09/13 02:12:25;;;;;;;2.20;2.10;;;;;;;;;;5034017;28;20415;-69
2023/09/13 02:14:51;;;;;;;2.50;2.30;;;;;;;;;;5033933;28;20411;-71
2023/09/13 02:17:18;;;;;;;1.83;1.73;;;;;;;;;;5033955;28;20553;-70
2023/09/13 02:19:43;;;;;;;2.37;2.17;;;;;;;;;;5032527;28;20426;-69
2023/09/13 02:22:09;;;;;;;2.73;2.63;;;;;;;;;;5033689;28;20454;-70
2023/09/13 02:24:37;;;;;;;10.57;2.27;;;;;;;;;;5033764;28;20435;-70
2023/09/13 02:27:03;;;;;;;8.13;2.73;;;;;;;;;;5033928;28;20480;-71
2023/09/13 02:29:29;;;;;;;9.40;2.30;;;;;;;;;;5033955;28;20899;-69
2023/09/13 02:31:54;;;;;;;2.50;2.50;;;;;;;;;;5032360;28;20458;-71
2023/09/13 02:34:21;;;;;;;2.53;2.30;;;;;;;;;;5033495;28;20556;-69
2023/09/13 02:36:47;;;;;;;5.80;2.20;;;;;;;;;;5033843;28;20463;-70
2023/09/13 02:39:32;;;;;;;4.53;2.40;;;;;;;;;;5033811;28;20426;-69
2023/09/13 02:41:58;;;;;;;3.13;2.53;;;;;;;;;;5033555;28;20473;-69
2023/09/13 02:44:24;;;;;;;2.17;2.17;;;;;;;;;;5033683;28;20848;-70
2023/09/13 02:46:50;;;;;;;2.60;2.40;;;;;;;;;;5033448;28;20259;-70
2023/09/13 02:49:16;;;;;;;2.13;2.03;;;;;;;;;;5033312;28;20513;-69
2023/09/13 02:51:42;;;;;;;3.73;2.87;;;;;;;;;;5033647;28;20426;-69
2023/09/13 02:54:08;;;;;;;2.40;2.30;;;;;;;;;;5033396;28;20438;-70
2023/09/13 02:56:34;;;;;;;5.80;2.30;;;;;;;;;;5033119;28;20491;-69
2023/09/13 02:59:01;;;;;;;2.00;1.90;;;;;;;;;;5033144;28;20526;-70
2023/09/13 03:01:27;;;;;;;2.40;2.10;;;;;;;;;;5033468;28;20454;-70
2023/09/13 03:03:53;;;;;;;15.30;2.70;;;;;;;;;;5033370;28;20922;-71
2023/09/13 03:06:19;;;;;;;2.50;2.30;;;;;;;;;;5033255;28;20949;-71
2023/09/13 03:08:45;;;;;;;2.70;2.50;;;;;;;;;;5033489;28;20752;-71
2023/09/13 03:11:12;;;;;;;4.00;2.70;;;;;;;;;;5033293;28;20508;-71
2023/09/13 03:13:38;;;;;;;2.80;2.60;;;;;;;;;;5033354;28;20510;-70
2023/09/13 03:16:11;;;;;;;9.80;2.70;;;;;;;;;;5033275;28;20467;-70
2023/09/13 03:18:37;;;;;;;3.27;3.17;;;;;;;;;;5033418;28;20478;-70
2023/09/13 03:21:06;;;;;;;2.60;2.60;;;;;;;;;;5033180;28;20900;-70
2023/09/13 03:23:32;;;;;;;2.90;2.70;;;;;;;;;;5032974;28;20919;-71
2023/09/13 03:25:58;;;;;;;2.97;2.87;;;;;;;;;;5033048;28;20460;-71
2023/09/13 03:28:23;;;;;;;3.70;2.47;;;;;;;;;;5034538;28;20418;-70
2023/09/13 03:30:49;;;;;;;2.73;2.53;;;;;;;;;;5037220;28;20911;-71
2023/09/13 03:33:15;;;;;;;3.03;2.57;;;;;;;;;;5037222;28;20823;-71
2023/09/13 03:35:41;;;;;;;5.73;5.27;;;;;;;;;;5037154;28;20467;-71
2023/09/13 03:38:07;;;;;;;9.10;8.50;;;;;;;;;;5036831;28;20429;-71
2023/09/13 03:40:33;;;;;;;6.30;4.43;;;;;;;;;;5036926;28;20212;-72
2023/09/13 03:42:59;;;;;;;4.27;3.97;;;;;;;;;;5036871;28;20188;-70
2023/09/13 03:45:25;;;;;;;4.13;2.87;;;;;;;;;;5036792;28;20413;-72
2023/09/13 03:47:51;;;;;;;4.70;2.80;;;;;;;;;;5037015;28;20592;-70
2023/09/13 03:50:17;;;;;;;2.50;2.50;;;;;;;;;;5036631;28;20419;-70
2023/09/13 03:52:43;;;;;;;3.20;3.10;;;;;;;;;;5037181;28;20419;-70
2023/09/13 03:55:09;;;;;;;4.00;2.67;;;;;;;;;;5036619;28;20485;-70
2023/09/13 03:57:35;;;;;;;3.97;2.37;;;;;;;;;;5036845;28;20424;-71
2023/09/13 04:00:01;;;;;;;3.20;3.07;;;;;;;;;;5036525;28;20482;-70
2023/09/13 04:02:27;;;;;;;4.30;2.90;;;;;;;;;;5036477;28;20430;-70
2023/09/13 04:04:54;;;;;;;6.40;2.70;;;;;;;;;;5037366;28;20411;-70
2023/09/13 04:07:20;;;;;;;3.07;2.87;;;;;;;;;;5036673;28;20418;-69
2023/09/13 04:09:46;;;;;;;3.87;2.73;;;;;;;;;;5036293;28;20418;-70
2023/09/13 04:12:12;;;;;;;7.90;5.47;;;;;;;;;;5035007;28;20423;-69
2023/09/13 04:14:38;;;;;;;10.30;3.17;;;;;;;;;;5036246;28;20518;-69
2023/09/13 04:17:04;;;;;;;2.97;2.77;;;;;;;;;;5036080;28;20516;-69
2023/09/13 04:19:30;;;;;;;3.70;3.60;;;;;;;;;;5036285;28;20914;-69
2023/09/13 04:21:56;;;;;;;4.23;3.70;;;;;;;;;;5036348;28;20434;-69
2023/09/13 04:24:22;;;;;;;3.07;2.83;;;;;;;;;;5036054;28;20181;-70
2023/09/13 04:26:48;;;;;;;3.90;3.70;;;;;;;;;;5036061;28;20180;-70
2023/09/13 04:29:14;;;;;;;9.77;4.40;;;;;;;;;;5036171;28;20915;-71
2023/09/13 04:31:40;;;;;;;3.87;3.67;;;;;;;;;;5036103;28;20427;-69
2023/09/13 04:34:06;;;;;;;3.57;3.27;;;;;;;;;;5035857;28;20896;-69
2023/09/13 04:36:32;;;;;;;3.73;3.30;;;;;;;;;;5035785;28;20781;-70
2023/09/13 04:38:58;;;;;;;3.83;2.93;;;;;;;;;;5035812;28;20437;-71
2023/09/13 04:41:23;;;;;;;6.37;3.17;;;;;;;;;;5033240;28;20521;-69
2023/09/13 04:43:49;;;;;;;10.97;3.57;;;;;;;;;;5035685;28;20419;-69
2023/09/13 04:46:15;;;;;;;3.60;3.30;;;;;;;;;;5035681;28;20180;-70
2023/09/13 04:48:41;;;;;;;10.67;3.00;;;;;;;;;;5035551;28;20423;-70
2023/09/13 04:51:09;;;;;;;8.63;3.00;;;;;;;;;;5035527;28;20817;-69
2023/09/13 04:53:35;;;;;;;11.27;3.30;;;;;;;;;;5035467;28;20422;-69
2023/09/13 04:56:01;;;;;;;4.00;3.90;;;;;;;;;;5035207;28;20487;-69
2023/09/13 04:58:27;;;;;;;16.90;3.10;;;;;;;;;;5036172;28;20423;-71
2023/09/13 05:00:53;;;;;;;7.23;2.90;;;;;;;;;;5035663;28;20476;-69
2023/09/13 05:03:19;;;;;;;10.33;2.80;;;;;;;;;;5035529;28;20412;-70
2023/09/13 05:05:45;;;;;;;2.73;2.53;;;;;;;;;;5035578;28;20895;-69
2023/09/13 05:08:11;;;;;;;4.53;2.80;;;;;;;;;;5034052;28;20430;-70
2023/09/13 05:10:39;;;;;;;2.97;2.87;;;;;;;;;;5035318;28;20184;-70
2023/09/13 05:13:05;;;;;;;5.30;2.70;;;;;;;;;;5035626;28;20428;-69
2023/09/13 05:15:41;;;;;;;7.03;3.20;;;;;;;;;;5035087;28;20459;-69
2023/09/13 05:18:07;;;;;;;5.83;2.83;;;;;;;;;;5034724;28;20520;-69
2023/09/13 05:20:33;;;;;;;5.03;3.87;;;;;;;;;;5034975;28;20973;-71
2023/09/13 05:22:59;;;;;;;7.57;3.20;;;;;;;;;;5034952;28;20415;-70
2023/09/13 05:25:25;;;;;;;3.20;3.00;;;;;;;;;;5035211;28;20188;-71
2023/09/13 05:27:51;;;;;;;4.43;3.30;;;;;;;;;;5034908;28;20411;-70
2023/09/13 05:30:17;;;;;;;4.00;3.00;;;;;;;;;;5034787;28;20423;-71
2023/09/13 05:32:43;;;;;;;5.73;3.50;;;;;;;;;;5035493;28;20648;-70
2023/09/13 05:35:09;;;;;;;6.03;3.73;;;;;;;;;;5034544;28;20423;-71
2023/09/13 05:37:35;;;;;;;3.40;2.97;;;;;;;;;;5034935;28;20219;-71
2023/09/13 05:40:06;;;;;;;2.73;2.50;;;;;;;;;;5034978;28;20548;-70
2023/09/13 05:42:32;;;;;;;4.00;2.80;;;;;;;;;;5034630;28;20898;-70
2023/09/13 05:44:58;;;;;;;3.53;2.97;;;;;;;;;;5034841;28;21062;-71
2023/09/13 05:47:24;;;;;;;11.60;3.37;;;;;;;;;;5034818;28;20473;-71
2023/09/13 05:49:50;;;;;;;3.07;2.77;;;;;;;;;;5034367;28;20442;-71
2023/09/13 05:52:16;;;;;;;7.53;2.70;;;;;;;;;;5034126;28;20415;-69
2023/09/13 05:54:42;;;;;;;5.77;2.33;;;;;;;;;;5034436;28;20415;-68
2023/09/13 05:57:08;;;;;;;6.60;2.73;;;;;;;;;;5034556;28;20872;-71
2023/09/13 05:59:39;;;;;;;2.50;2.50;;;;;;;;;;5034411;28;20773;-71
2023/09/13 06:02:05;;;;;;;6.13;3.17;;;;;;;;;;5034564;28;20408;-72
2023/09/13 06:04:31;;;;;;;3.10;3.00;;;;;;;;;;5034159;28;20419;-70
2023/09/13 06:06:57;;;;;;;11.47;2.47;;;;;;;;;;5034042;28;20431;-70
2023/09/13 06:09:23;;;;;;;6.00;2.77;;;;;;;;;;5034233;28;20181;-71
2023/09/13 06:11:49;;;;;;;2.93;2.73;;;;;;;;;;5034341;28;20411;-71
2023/09/13 06:14:16;;;;;;;5.83;2.97;;;;;;;;;;5034022;28;20546;-70
2023/09/13 06:16:42;;;;;;;2.93;2.73;;;;;;;;;;5034003;28;20526;-70
2023/09/13 06:19:08;;;;;;;9.60;2.90;;;;;;;;;;5033870;28;20915;-70
2023/09/13 06:21:34;;;;;;;2.67;2.43;;;;;;;;;;5033794;28;20429;-70
2023/09/13 06:24:00;;;;;;;4.57;2.07;;;;;;;;;;5034079;28;20415;-70
2023/09/13 06:26:26;;;;;;;5.40;3.27;;;;;;;;;;5033953;28;20184;-70
2023/09/13 06:28:52;;;;;;;3.40;3.10;;;;;;;;;;5033894;28;20412;-70
2023/09/13 06:31:18;;;;;;;4.00;3.20;;;;;;;;;;5034417;28;20515;-70
2023/09/13 06:33:45;;;;;;;4.03;3.27;;;;;;;;;;5033883;28;20403;-71
2023/09/13 06:36:11;;;;;;;4.00;2.90;;;;;;;;;;5033489;28;20931;-72
2023/09/13 06:38:37;;;;;;;3.70;2.30;;;;;;;;;;5033642;28;20415;-72
2023/09/13 06:41:03;;;;;;;3.70;3.13;;;;;;;;;;5032361;28;20430;-72
2023/09/13 06:43:29;;;;;;;4.00;2.70;;;;;;;;;;5033479;28;20423;-71
2023/09/13 06:45:55;;;;;;;7.97;2.90;;;;;;;;;;5032222;28;20421;-71
2023/09/13 06:48:22;;;;;;;4.33;2.80;;;;;;;;;;5033317;28;20900;-70
2023/09/13 06:50:48;;;;;;;11.20;2.60;;;;;;;;;;5033655;28;20490;-70
2023/09/13 06:53:14;;;;;;;7.00;2.60;;;;;;;;;;5033450;28;20934;-71
2023/09/13 06:55:40;;;;;;;5.00;2.87;;;;;;;;;;5033067;28;20994;-70
2023/09/13 06:58:08;;;;;;;15.53;4.10;;;;;;;;;;5033365;28;20416;-70
2023/09/13 07:00:34;;;;;;;2.23;2.17;;;;;;;;;;5033200;28;20779;-70
2023/09/13 07:03:03;;;;;;;2.30;2.30;;;;;;;;;;5033085;28;20898;-70
2023/09/13 07:05:29;;;;;;;4.87;2.80;;;;;;;;;;5033015;28;20966;-70
2023/09/13 07:07:55;;;;;;;3.13;3.03;;;;;;;;;;5033487;28;20503;-71
2023/09/13 07:10:21;;;;;;;2.93;2.43;;;;;;;;;;5033048;28;20420;-70
2023/09/13 07:12:47;;;;;;;2.80;2.70;;;;;;;;;;5033118;28;20427;-70
2023/09/13 07:15:13;;;;;;;3.30;3.10;;;;;;;;;;5033186;28;20415;-71
2023/09/13 07:17:39;;;;;;;4.87;2.60;;;;;;;;;;5032960;28;20561;-69
2023/09/13 07:20:05;;;;;;;2.70;2.53;;;;;;;;;;5033041;28;20434;-70
2023/09/13 07:22:31;;;;;;;3.40;2.70;;;;;;;;;;5032922;28;20423;-70
2023/09/13 07:24:57;;;;;;;4.23;2.37;;;;;;;;;;5032910;28;20415;-70
2023/09/13 07:27:23;;;;;;;8.07;2.90;;;;;;;;;;5032751;28;20420;-70
2023/09/13 07:29:49;;;;;;;2.60;2.40;;;;;;;;;;5032666;28;20510;-70
2023/09/13 07:35:20;;;;;;;5.90;2.87;;;;;;;;;;5032828;28;20453;-70
2023/09/13 07:37:46;;;;;;;2.83;2.20;;;;;;;;;;5033240;28;20427;-70
2023/09/13 07:40:12;;;;;;;6.30;2.80;;;;;;;;;;5032762;28;20939;-70
2023/09/13 07:42:38;;;;;;;3.17;2.73;;;;;;;;;;5033557;28;20514;-70
2023/09/13 07:45:04;;;;;;;8.63;2.40;;;;;;;;;;5033003;28;20569;-70
2023/09/13 07:47:30;;;;;;;3.00;2.80;;;;;;;;;;5032719;28;20435;-70
2023/09/13 07:49:59;;;;;;;2.30;2.03;;;;;;;;;;5032686;28;20411;-70
2023/09/13 07:52:25;;;;;;;2.73;2.53;;;;;;;;;;5032918;28;20434;-70
2023/09/13 07:54:51;;;;;;;2.73;2.63;;;;;;;;;;5032776;28;20505;-70
2023/09/13 07:57:17;;;;;;;5.30;2.73;;;;;;;;;;5033166;28;20467;-72
2023/09/13 07:59:43;;;;;;;2.60;2.50;;;;;;;;;;5032939;28;20462;-71
2023/09/13 08:02:09;;;;;;;10.63;3.03;;;;;;;;;;5032582;28;20426;-72
2023/09/13 08:04:35;;;;;;;6.77;3.20;;;;;;;;;;5032563;28;20423;-70
2023/09/13 08:07:02;;;;;;;2.33;2.20;;;;;;;;;;5032832;28;20426;-70
2023/09/13 08:09:28;;;;;;;2.60;2.40;;;;;;;;;;5032800;28;20446;-69
2023/09/13 08:11:54;;;;;;;3.23;3.07;;;;;;;;;;5032705;28;20532;-70
2023/09/13 08:14:20;;;;;;;2.60;2.50;;;;;;;;;;5033729;28;20422;-70
2023/09/13 08:16:46;;;;;;;2.70;2.70;;;;;;;;;;5035652;28;20481;-71
2023/09/13 08:19:12;;;;;;;2.50;2.30;;;;;;;;;;5035806;28;20427;-71
2023/09/13 08:21:38;;;;;;;3.80;2.27;;;;;;;;;;5036356;28;20423;-70
2023/09/13 08:24:04;;;;;;;2.30;2.30;;;;;;;;;;5036188;28;20573;-70
2023/09/13 08:26:30;;;;;;;2.50;2.43;;;;;;;;;;5036307;28;20427;-70
2023/09/13 08:28:57;;;;;;;2.40;1.90;;;;;;;;;;5035801;28;20914;-69
2023/09/13 08:31:26;;;;;;;3.53;2.42;;;;;;;;;;5034990;28;20537;-70
2023/09/13 08:33:52;;;;;;;2.70;2.50;;;;;;;;;;5035963;28;20203;-69
2023/09/13 08:36:18;;;;;;;2.60;2.50;;;;;;;;;;5035595;28;21060;-70
2023/09/13 08:38:45;;;;;;;2.70;2.50;;;;;;;;;;5035985;28;20833;-70
2023/09/13 08:41:12;;;;;;;2.40;2.30;;;;;;;;;;5035892;28;20424;-71
2023/09/13 08:43:39;;;;;;;3.13;2.57;;;;;;;;;;5035610;28;20928;-70
2023/09/13 08:46:06;;;;;;;2.03;2.03;;;;;;;;;;5035750;28;20812;-69
2023/09/13 08:48:33;;;;;;;1.73;1.73;;;;;;;;;;5035822;28;20433;-69
2023/09/13 08:50:59;;;;;;;2.27;2.17;;;;;;;;;;5036159;28;20416;-69
2023/09/13 08:53:26;;;;;;;2.90;2.70;;;;;;;;;;5035741;28;20420;-69
2023/09/13 08:55:52;;;;;;;2.70;2.53;;;;;;;;;;5035234;28;20482;-70
2023/09/13 08:58:18;;;;;;;5.97;2.73;;;;;;;;;;5035647;28;20514;-70
2023/09/13 09:00:46;;;;;;;3.17;2.97;;;;;;;;;;5035173;28;20411;-70
2023/09/13 09:03:13;;;;;;;2.70;2.50;;;;;;;;;;5035781;28;20426;-71
2023/09/13 09:05:41;;;;;;;2.73;2.73;;;;;;;;;;5035456;28;20419;-70
2023/09/13 09:08:07;;;;;;;2.53;2.43;;;;;;;;;;5033849;28;20526;-70
2023/09/13 09:10:34;;;;;;;6.50;2.90;;;;;;;;;;5034804;28;20423;-69
2023/09/13 09:13:01;;;;;;;31.10;3.10;;;;;;;;;;5035145;28;20420;-70
2023/09/13 09:15:27;;;;;;;3.37;3.17;;;;;;;;;;5035430;28;20927;-69
2023/09/13 09:17:55;;;;;;;9.20;2.77;;;;;;;;;;5034936;28;20469;-70
2023/09/13 09:20:24;;;;;;;2.63;2.43;;;;;;;;;;5035177;28;20430;-69
2023/09/13 09:22:50;;;;;;;3.47;2.40;;;;;;;;;;5034869;28;20429;-69
2023/09/13 09:25:16;;;;;;;6.93;2.90;;;;;;;;;;5035134;28;20498;-69
2023/09/13 09:27:42;;;;;;;6.80;2.43;;;;;;;;;;5034160;28;20554;-70
2023/09/13 09:30:14;;;;;;;3.07;2.40;;;;;;;;;;5034777;28;20423;-71
2023/09/13 09:32:40;;;;;;;2.40;2.20;;;;;;;;;;5034744;28;20809;-69
2023/09/13 09:35:06;;;;;;;2.63;2.53;;;;;;;;;;5034897;28;20207;-71
2023/09/13 09:37:33;;;;;;;1.83;1.83;;;;;;;;;;5034545;28;20479;-68
2023/09/13 09:39:59;;;;;;;6.90;1.87;;;;;;;;;;5034727;28;20491;-71
2023/09/13 09:42:29;;;;;;;2.53;2.33;;;;;;;;;;5034839;28;20915;-69
2023/09/13 09:44:55;;;;;;;2.87;2.77;;;;;;;;;;5034651;28;20422;-70
2023/09/13 09:47:21;;;;;;;2.27;2.13;;;;;;;;;;5034549;28;20438;-71
2023/09/13 09:49:49;;;;;;;2.20;2.20;;;;;;;;;;5034304;28;20420;-70
2023/09/13 09:52:16;;;;;;;7.27;3.87;;;;;;;;;;5034524;28;20428;-70
2023/09/13 09:54:51;;;;;;;2.63;2.50;;;;;;;;;;5034369;28;20420;-70
2023/09/13 09:57:21;;;;;;;3.13;3.03;;;;;;;;;;5032836;28;20474;-70
2023/09/13 09:59:47;;;;;;;2.93;2.73;;;;;;;;;;5034384;28;20415;-71
2023/09/13 10:02:13;;;;;;;5.90;3.60;;;;;;;;;;5034147;28;20763;-66
2023/09/13 10:04:46;;;;;;;8.47;2.57;;;;;;;;;;5034041;28;20415;-70
2023/09/13 10:07:12;;;;;;;4.87;2.83;;;;;;;;;;5034401;28;20623;-70
2023/09/13 10:09:43;;;;;;;12.73;2.80;;;;;;;;;;5034111;28;20435;-69
2023/09/13 10:12:10;;;;;;;3.13;2.83;;;;;;;;;;5033998;28;20422;-70
2023/09/13 10:14:37;;;;;;;2.07;1.97;;;;;;;;;;5034380;28;20876;-70
2023/09/13 10:17:04;;;;;;;2.13;2.00;;;;;;;;;;5033816;28;21029;-71
2023/09/13 10:19:31;;;;;;;1.43;1.33;;;;;;;;;;5035415;28;20447;-70
2023/09/13 10:21:57;;;;;;;2.27;2.17;;;;;;;;;;5034904;28;20427;-71
2023/09/13 10:24:24;;;;;;;2.70;2.47;;;;;;;;;;5034418;28;20514;-69
2023/09/13 10:26:53;;;;;;;6.67;1.57;;;;;;;;;;5034024;28;20447;-70
2023/09/13 10:29:25;;;;;;;1.60;1.60;;;;;;;;;;5033913;28;20502;-69
2023/09/13 10:34:56;;;;;;;8.97;1.90;;;;;;;;;;5033724;28;20457;-69
2023/09/13 10:37:22;;;;;;;5.80;2.03;;;;;;;;;;5033103;28;20600;-69
2023/09/13 10:39:51;;;;;;;1.70;1.60;;;;;;;;;;5033350;28;20415;-69
2023/09/13 10:42:18;;;;;;;1.67;1.40;;;;;;;;;;5034441;28;20215;-69
2023/09/13 10:44:45;;;;;;;1.70;1.70;;;;;;;;;;5034113;28;20868;-70
2023/09/13 10:47:12;;;;;;;1.93;1.93;;;;;;;;;;5034229;28;20419;-69
2023/09/13 10:49:38;;;;;;;1.37;1.27;;;;;;;;;;5033295;28;20420;-69
2023/09/13 10:52:05;;;;;;;2.27;1.33;;;;;;;;;;5033593;28;20426;-70
2023/09/13 10:54:31;;;;;;;1.70;1.60;;;;;;;;;;5033582;28;20430;-69
2023/09/13 10:56:58;;;;;;;2.93;2.80;;;;;;;;;;5033035;28;20541;-71
2023/09/13 10:59:25;;;;;;;3.20;3.03;;;;;;;;;;5033167;28;20473;-69
2023/09/13 11:01:51;;;;;;;3.27;2.33;;;;;;;;;;5033152;28;20447;-69
2023/09/13 11:04:18;;;;;;;3.40;3.20;;;;;;;;;;5033338;28;20428;-70
2023/09/13 11:06:44;;;;;;;3.43;2.80;;;;;;;;;;5033121;28;20782;-70
2023/09/13 11:09:11;;;;;;;2.63;2.60;;;;;;;;;;5033297;28;20516;-70
2023/09/13 11:11:37;;;;;;;2.90;2.70;;;;;;;;;;5032928;28;20779;-69
2023/09/13 11:14:10;;;;;;;2.87;2.63;;;;;;;;;;5033122;28;20431;-71
2023/09/13 11:16:36;;;;;;;3.60;2.10;;;;;;;;;;5032992;28;20569;-69
2023/09/13 11:19:04;;;;;;;2.80;2.23;;;;;;;;;;5033245;28;20895;-69
2023/09/13 11:21:45;;;;;;;2.30;2.30;;;;;;;;;;5033265;28;20419;-69
2023/09/13 11:24:12;;;;;;;2.07;2.07;;;;;;;;;;5033356;28;20403;-70
2023/09/13 11:26:54;;;;;;;2.63;2.63;;;;;;;;;;5032922;28;20941;-72
2023/09/13 11:29:24;;;;;;;2.40;2.40;;;;;;;;;;5033490;28;20498;-70
2023/09/13 11:32:00;;;;;;;2.90;2.90;;;;;;;;;;5032960;28;20423;-70
2023/09/13 11:34:26;;;;;;;2.60;2.50;;;;;;;;;;5033173;28;20545;-69
2023/09/13 11:37:02;;;;;;;1.80;1.70;;;;;;;;;;5032735;28;20517;-70
2023/09/13 11:39:28;;;;;;;6.70;2.13;;;;;;;;;;5033143;28;20395;-70
2023/09/13 11:41:58;;;;;;;2.27;2.07;;;;;;;;;;5033082;28;20769;-70
2023/09/13 11:44:24;;;;;;;2.23;2.13;;;;;;;;;;5033491;28;20552;-70
2023/09/13 11:46:51;;;;;;;2.70;2.60;;;;;;;;;;5032862;28;20536;-70
2023/09/13 11:49:21;;;;;;;2.60;2.40;;;;;;;;;;5033533;28;20411;-70
2023/09/13 11:51:57;;;;;;;2.13;2.13;;;;;;;;;;5036647;28;21005;-70
2023/09/13 11:54:23;;;;;;;2.97;2.87;;;;;;;;;;5036429;28;20910;-71
2023/09/13 11:56:51;;;;;;;2.77;2.60;;;;;;;;;;5036014;28;20478;-71
2023/09/13 11:59:17;;;;;;;2.63;2.53;;;;;;;;;;5036481;28;20506;-70
2023/09/13 12:01:45;;;;;;;2.10;2.10;;;;;;;;;;5036070;28;20419;-70
2023/09/13 12:04:11;;;;;;;2.80;2.30;;;;;;;;;;5036344;28;20472;-71
2023/09/13 12:06:41;;;;;;;1.40;1.40;;;;;;;;;;5034811;28;20959;-70
2023/09/13 12:09:11;;;;;;;2.50;2.33;;;;;;;;;;5035646;28;20419;-71
2023/09/13 12:11:39;;;;;;;2.40;2.40;;;;;;;;;;5034204;28;20498;-70
2023/09/13 12:14:05;;;;;;;2.67;2.57;;;;;;;;;;5036187;28;20414;-70
2023/09/13 12:16:31;;;;;;;3.00;2.90;;;;;;;;;;5035912;28;20533;-71
2023/09/13 12:18:58;;;;;;;2.60;2.50;;;;;;;;;;5035927;28;20412;-70
2023/09/13 12:21:24;;;;;;;2.20;2.20;;;;;;;;;;5036059;28;20449;-70
2023/09/13 12:23:50;;;;;;;3.53;2.47;;;;;;;;;;5035537;28;20971;-70
2023/09/13 12:26:17;;;;;;;3.33;3.00;;;;;;;;;;5035905;28;20426;-70
2023/09/13 12:28:45;;;;;;;3.47;3.27;;;;;;;;;;5035545;28;20433;-70
2023/09/13 12:31:15;;;;;;;4.00;2.50;;;;;;;;;;5035554;28;20423;-70
2023/09/13 12:33:42;;;;;;;2.70;2.70;;;;;;;;;;5035663;28;20473;-70
2023/09/13 12:36:09;;;;;;;2.80;2.70;;;;;;;;;;5035480;28;20474;-70
2023/09/13 12:38:44;;;;;;;4.30;3.37;;;;;;;;;;5035741;28;20432;-70
2023/09/13 12:41:10;;;;;;;3.20;3.13;;;;;;;;;;5035190;28;20464;-70
2023/09/13 12:43:36;;;;;;;3.00;2.80;;;;;;;;;;5035504;28;20857;-70
2023/09/13 12:46:03;;;;;;;2.20;2.20;;;;;;;;;;5035189;28;20914;-70
2023/09/13 12:48:29;;;;;;;2.10;2.10;;;;;;;;;;5035129;28;20461;-70
2023/09/13 12:50:55;;;;;;;2.20;2.00;;;;;;;;;;5035379;28;20419;-71
2023/09/13 12:53:27;;;;;;;2.10;2.10;;;;;;;;;;5035090;28;20892;-70
2023/09/13 12:55:53;;;;;;;2.23;2.20;;;;;;;;;;5034887;28;20948;-71
2023/09/13 12:58:19;;;;;;;2.50;2.40;;;;;;;;;;5034904;28;20426;-70
2023/09/13 13:00:49;;;;;;;3.57;3.47;;;;;;;;;;5033752;28;20447;-70
2023/09/13 13:03:16;;;;;;;2.17;1.97;;;;;;;;;;5035094;28;20423;-71
2023/09/13 13:05:45;;;;;;;1.77;1.67;;;;;;;;;;5034913;28;20418;-70
2023/09/13 13:08:11;;;;;;;2.50;2.50;;;;;;;;;;5035149;28;20776;-70
2023/09/13 13:10:56;;;;;;;2.30;2.23;;;;;;;;;;5035104;28;20892;-71
2023/09/13 13:13:23;;;;;;;5.60;2.80;;;;;;;;;;5035778;28;20778;-70
2023/09/13 13:15:49;;;;;;;1.53;1.53;;;;;;;;;;5034999;28;20454;-71
2023/09/13 13:18:15;;;;;;;3.20;3.00;;;;;;;;;;5035119;28;20466;-70
2023/09/13 13:20:47;;;;;;;3.27;2.40;;;;;;;;;;5035047;28;20931;-72
2023/09/13 13:23:13;;;;;;;3.00;1.83;;;;;;;;;;5034847;28;20416;-70
2023/09/13 13:25:41;;;;;;;2.63;2.53;;;;;;;;;;5034874;28;20426;-70
2023/09/13 13:28:07;;;;;;;2.60;2.60;;;;;;;;;;5034859;28;20485;-70
2023/09/13 13:30:33;;;;;;;1.90;1.80;;;;;;;;;;5035090;28;20947;-70
2023/09/13 13:32:59;;;;;;;2.20;2.10;;;;;;;;;;5034726;28;20418;-71
2023/09/13 13:35:25;;;;;;;2.53;2.33;;;;;;;;;;5034640;28;20493;-70
2023/09/13 13:37:51;;;;;;;2.50;2.37;;;;;;;;;;5035137;28;20478;-71
2023/09/13 13:40:17;;;;;;;2.30;2.20;;;;;;;;;;5034670;28;20411;-70
2023/09/13 13:42:43;;;;;;;2.60;1.80;;;;;;;;;;5034854;28;20420;-70
2023/09/13 13:45:11;;;;;;;3.50;1.83;;;;;;;;;;5035075;28;20477;-70
2023/09/13 13:47:37;;;;;;;1.87;1.63;;;;;;;;;;5034164;28;20485;-71
2023/09/13 13:50:03;;;;;;;1.50;1.40;;;;;;;;;;5034583;28;20821;-71
2023/09/13 13:52:29;;;;;;;1.80;1.80;;;;;;;;;;5034539;28;20442;-71
2023/09/13 13:54:55;;;;;;;2.10;1.60;;;;;;;;;;5034266;28;20449;-70
2023/09/13 13:57:22;;;;;;;2.07;2.07;;;;;;;;;;5034364;28;20475;-71
2023/09/13 13:59:48;;;;;;;2.60;1.70;;;;;;;;;;5034555;28;20418;-70
2023/09/13 14:02:14;;;;;;;1.43;1.43;;;;;;;;;;5034536;28;20784;-70
2023/09/13 14:04:40;;;;;;;1.80;1.80;;;;;;;;;;5034035;28;20558;-70
2023/09/13 14:07:06;;;;;;;2.33;2.13;;;;;;;;;;5034387;28;20434;-66
2023/09/13 14:09:32;;;;;;;1.37;1.37;;;;;;;;;;5033923;28;20448;-71
2023/09/13 14:11:58;;;;;;;1.63;1.53;;;;;;;;;;5033942;28;20462;-70
2023/09/13 14:14:25;;;;;;;3.70;1.30;;;;;;;;;;5033928;28;20923;-71
2023/09/13 14:16:53;;;;;;;2.33;2.03;;;;;;;;;;5033641;28;20470;-70
2023/09/13 14:19:20;;;;;;;2.50;2.07;;;;;;;;;;5034107;28;20422;-70
2023/09/13 14:21:46;;;;;;;1.60;1.60;;;;;;;;;;5034354;28;20480;-70
2023/09/13 14:24:12;;;;;;;1.67;1.67;;;;;;;;;;5034127;28;20490;-70
2023/09/13 14:26:38;;;;;;;1.93;1.93;;;;;;;;;;5033824;28;20953;-70
2023/09/13 14:29:04;;;;;;;1.63;1.63;;;;;;;;;;5033792;28;20495;-70
2023/09/13 14:31:36;;;;;;;1.87;1.77;;;;;;;;;;5033471;28;20485;-70
2023/09/13 14:34:04;;;;;;;1.70;1.70;;;;;;;;;;5034170;28;20739;-70
2023/09/13 14:36:30;;;;;;;2.17;1.93;;;;;;;;;;5032276;28;20887;-70
2023/09/13 14:38:56;;;;;;;1.73;1.73;;;;;;;;;;5033848;28;20911;-70
2023/09/13 14:41:24;;;;;;;2.07;1.87;;;;;;;;;;5033600;28;20812;-70
2023/09/13 14:43:50;;;;;;;2.60;2.00;;;;;;;;;;5033277;28;20916;-70
2023/09/13 14:46:16;;;;;;;2.20;2.10;;;;;;;;;;5033546;28;20420;-70
2023/09/13 14:48:42;;;;;;;1.90;1.80;;;;;;;;;;5033592;28;20426;-70